createdAt,value
2018-03-04T18:06:11.634Z,96051.77
2018-03-04T18:08:42.924Z,96057.38
2018-03-04T18:11:14.192Z,96056.53
2018-03-04T18:45:58.363Z,96028.21
2018-03-04T18:48:27.989Z,96025.31
2018-03-04T18:50:56.902Z,96034.42
2018-03-04T18:56:18.087Z,96040.02
2018-03-04T18:58:46.910Z,96042.09
2018-03-04T19:01:15.821Z,96039.31
2018-03-04T19:03:45.870Z,96050.19
2018-03-04T19:06:17.450Z,96059.30
2018-03-04T19:08:47.636Z,96054.28
2018-03-04T19:11:16.607Z,96054.75
2018-03-04T19:13:45.466Z,96061.28
2018-03-04T19:16:14.224Z,96063.45
2018-03-04T19:18:42.993Z,96058.43
2018-03-04T19:21:12.239Z,96063.39
2018-03-04T19:23:41.055Z,96063.75
2018-03-04T19:26:10.039Z,96059.33
2018-03-04T19:28:39.275Z,96056.22
2018-03-04T19:31:09.822Z,96056.10
2018-03-04T19:33:38.814Z,96069.44
2018-03-04T19:36:07.727Z,96081.12
2018-03-04T19:38:36.618Z,96077.19
2018-03-04T19:41:05.599Z,96082.31
2018-03-04T19:43:34.924Z,96083.83
2018-03-04T19:46:04.189Z,96086.52
2018-03-04T19:48:33.499Z,96091.03
2018-03-04T19:51:02.399Z,96081.26
2018-03-04T19:53:31.357Z,96089.95
2018-03-04T19:56:00.322Z,96091.57
2018-03-04T19:58:29.309Z,96102.80
2018-03-04T20:00:59.606Z,96076.92
2018-03-04T20:03:29.423Z,96065.99
2018-03-04T20:05:59.658Z,96045.86
2018-03-04T20:08:28.480Z,96054.98
2018-03-04T20:10:57.297Z,96075.99
2018-03-04T20:13:26.099Z,96076.73
2018-03-04T20:15:59.680Z,96070.77
2018-03-04T20:18:28.571Z,96072.51
2018-03-04T20:20:57.468Z,96090.28
2018-03-04T20:23:26.266Z,96096.63
2018-03-04T20:25:55.691Z,96104.96
2018-03-04T20:28:24.524Z,96109.13
2018-03-04T20:30:53.369Z,96095.53
2018-03-04T20:33:22.431Z,96097.44
2018-03-04T20:35:53.166Z,96106.86
2018-03-04T20:38:22.032Z,96110.67
2018-03-04T20:40:51.727Z,96121.53
2018-03-04T20:43:20.829Z,96127.96
2018-03-04T20:45:49.918Z,96134.83
2018-03-04T20:48:20.210Z,96141.91
2018-03-04T20:50:49.696Z,96147.85
2018-03-04T20:53:19.276Z,96154.08
2018-03-04T20:55:50.850Z,96145.60
2018-03-04T20:58:21.287Z,96144.39
2018-03-04T21:00:50.347Z,96153.48
2018-03-04T21:03:19.279Z,96156.20
2018-03-04T21:05:48.107Z,96155.29
2018-03-04T21:08:16.947Z,96158.02
2018-03-04T21:10:45.748Z,96158.72
2018-03-04T21:13:14.713Z,96158.39
2018-03-04T21:15:43.945Z,96160.20
2018-03-04T21:18:13.499Z,96163.16
2018-03-04T21:20:42.727Z,96154.30
2018-03-04T21:23:12.238Z,96154.30
2018-03-04T21:25:41.696Z,96158.38
2018-03-04T21:28:11.353Z,96161.50
2018-03-04T21:30:40.862Z,96151.53
2018-03-04T21:33:10.445Z,96162.84
2018-03-04T21:35:39.557Z,96160.86
2018-03-04T21:38:08.609Z,96163.64
2018-03-04T21:40:38.611Z,96170.64
2018-03-04T21:43:07.887Z,96167.39
2018-03-04T21:45:37.488Z,96167.75
2018-03-04T21:48:06.744Z,96170.81
2018-03-04T21:50:38.820Z,96168.45
2018-03-04T21:53:08.252Z,96172.86
2018-03-04T21:55:37.280Z,96175.19
2018-03-04T21:58:08.865Z,96177.72
2018-03-04T22:00:39.268Z,96175.67
2018-03-04T22:03:08.718Z,96184.48
2018-03-04T22:05:38.756Z,96183.25
2018-03-04T22:08:08.148Z,96185.38
2018-03-04T22:10:37.898Z,96194.12
2018-03-04T22:13:07.884Z,96194.17
2018-03-04T22:15:37.278Z,96201.97
2018-03-04T22:18:06.080Z,96200.27
2018-03-04T22:20:38.114Z,96204.52
2018-03-04T22:23:07.561Z,96201.20
2018-03-04T22:25:36.308Z,96198.69
2018-03-04T22:28:05.827Z,96207.34
2018-03-04T22:30:35.821Z,96217.14
2018-03-04T22:33:05.521Z,96218.44
2018-03-04T22:35:34.940Z,96222.32
2018-03-04T22:38:04.559Z,96220.03
2018-03-04T22:40:33.548Z,96228.84
2018-03-04T22:43:02.479Z,96238.11
2018-03-04T22:45:31.611Z,96233.73
2018-03-04T22:48:00.529Z,96231.89
2018-03-04T22:50:30.071Z,96235.64
2018-03-04T22:52:58.914Z,96237.20
2018-03-04T22:55:28.488Z,96247.39
2018-03-04T22:57:57.512Z,96255.93
2018-03-04T23:00:26.369Z,96263.38
2018-03-04T23:02:55.280Z,96266.20
2018-03-04T23:05:24.320Z,96273.91
2018-03-04T23:07:53.133Z,96287.70
2018-03-04T23:10:21.848Z,96284.13
2018-03-04T23:12:50.732Z,96275.58
2018-03-04T23:15:19.526Z,96278.95
2018-03-04T23:17:55.167Z,96285.62
2018-03-04T23:20:24.013Z,96281.39
2018-03-04T23:22:53.052Z,96294.49
2018-03-04T23:25:21.940Z,96289.81
2018-03-04T23:27:50.792Z,96288.78
2018-03-04T23:30:19.732Z,96292.62
2018-03-04T23:32:48.559Z,96292.53
2018-03-04T23:35:17.431Z,96289.94
2018-03-04T23:37:46.666Z,96289.10
2018-03-04T23:40:15.468Z,96296.96
2018-03-04T23:42:44.245Z,96289.86
2018-03-04T23:45:13.263Z,96289.94
2018-03-04T23:47:46.948Z,96293.47
2018-03-04T23:50:15.795Z,96295.88
2018-03-04T23:52:44.628Z,96295.80
2018-03-04T23:55:13.434Z,96300.86
2018-03-04T23:57:47.784Z,96300.25
